sensor_id;sensor_type;location;lat;lon;timestamp;pressure;altitude;pressure_sealevel;temperature;humidity
7670;BME280;3877;42.562;27.636;2022-09-02T00:01:12;101329.03;;;26.35;100.00
7670;BME280;3877;42.562;27.636;2022-09-02T00:03:42;101320.41;;;26.35;100.00
7670;BME280;3877;42.562;27.636;2022-09-02T00:06:10;101321.63;;;26.41;100.00
7670;BME280;3877;42.562;27.636;2022-09-02T00:08:39;101295.41;;;26.25;100.00
7670;BME280;3877;42.562;27.636;2022-09-02T00:11:11;101270.88;;;26.03;100.00
7670;BME280;3877;42.562;27.636;2022-09-02T00:13:42;101306.03;;;26.35;100.00
7670;BME280;3877;42.562;27.636;2022-09-02T00:16:10;101312.16;;;26.37;100.00
7670;BME280;3877;42.562;27.636;2022-09-02T00:18:38;101312.63;;;26.32;100.00
7670;BME280;3877;42.562;27.636;2022-09-02T00:21:06;101313.41;;;26.40;100.00
7670;BME280;3877;42.562;27.636;2022-09-02T00:23:38;101311.75;;;26.39;100.00
7670;BME280;3877;42.562;27.636;2022-09-02T00:26:06;101301.09;;;26.39;100.00
7670;BME280;3877;42.562;27.636;2022-09-02T00:28:34;101306.47;;;26.30;100.00
7670;BME280;3877;42.562;27.636;2022-09-02T00:31:03;101314.25;;;26.33;100.00
7670;BME280;3877;42.562;27.636;2022-09-02T00:33:31;101310.97;;;26.35;100.00
7670;BME280;3877;42.562;27.636;2022-09-02T00:36:00;101303.59;;;26.20;100.00
7670;BME280;3877;42.562;27.636;2022-09-02T00:38:29;101303.69;;;26.02;100.00
7670;BME280;3877;42.562;27.636;2022-09-02T00:40:59;101302.88;;;25.91;100.00
7670;BME280;3877;42.562;27.636;2022-09-02T00:43:40;101304.56;;;25.81;100.00
7670;BME280;3877;42.562;27.636;2022-09-02T00:46:10;101302.13;;;25.73;100.00
7670;BME280;3877;42.562;27.636;2022-09-02T00:48:41;101315.25;;;25.70;100.00
7670;BME280;3877;42.562;27.636;2022-09-02T00:51:11;101307.06;;;25.68;100.00
7670;BME280;3877;42.562;27.636;2022-09-02T00:53:40;101317.69;;;25.72;100.00
7670;BME280;3877;42.562;27.636;2022-09-02T00:56:13;101309.88;;;25.76;100.00
7670;BME280;3877;42.562;27.636;2022-09-02T00:58:41;101304.59;;;25.71;100.00
7670;BME280;3877;42.562;27.636;2022-09-02T01:01:11;101311.94;;;25.79;100.00
7670;BME280;3877;42.562;27.636;2022-09-02T01:03:38;101281.66;;;25.56;100.00
7670;BME280;3877;42.562;27.636;2022-09-02T01:06:07;101304.56;;;25.78;100.00
7670;BME280;3877;42.562;27.636;2022-09-02T01:08:37;101293.09;;;25.85;100.00
7670;BME280;3877;42.562;27.636;2022-09-02T01:11:05;101300.41;;;26.00;100.00
7670;BME280;3877;42.562;27.636;2022-09-02T01:13:37;101309.78;;;26.14;100.00
7670;BME280;3877;42.562;27.636;2022-09-02T01:16:21;101303.63;;;26.16;100.00
7670;BME280;3877;42.562;27.636;2022-09-02T01:18:52;101309.34;;;26.23;100.00
7670;BME280;3877;42.562;27.636;2022-09-02T01:21:21;101299.09;;;26.29;100.00
7670;BME280;3877;42.562;27.636;2022-09-02T01:23:51;101290.91;;;26.24;100.00
7670;BME280;3877;42.562;27.636;2022-09-02T01:26:19;101297.44;;;26.28;100.00
7670;BME280;3877;42.562;27.636;2022-09-02T01:28:46;101292.91;;;26.34;100.00
7670;BME280;3877;42.562;27.636;2022-09-02T01:31:14;101306.03;;;26.35;100.00
7670;BME280;3877;42.562;27.636;2022-09-02T01:33:42;101297.81;;;26.37;100.00
7670;BME280;3877;42.562;27.636;2022-09-02T01:36:09;101304.38;;;26.41;100.00
7670;BME280;3877;42.562;27.636;2022-09-02T01:38:37;101295.75;;;26.41;100.00
7670;BME280;3877;42.562;27.636;2022-09-02T01:41:05;101299.44;;;26.42;100.00
7670;BME280;3877;42.562;27.636;2022-09-02T01:43:33;101286.72;;;26.39;100.00
7670;BME280;3877;42.562;27.636;2022-09-02T01:46:01;101283.06;;;26.35;100.00
7670;BME280;3877;42.562;27.636;2022-09-02T01:48:28;101284.69;;;26.36;100.00
7670;BME280;3877;42.562;27.636;2022-09-02T01:50:58;101300.25;;;26.42;100.00
7670;BME280;3877;42.562;27.636;2022-09-02T01:53:27;101287.97;;;26.42;100.00
7670;BME280;3877;42.562;27.636;2022-09-02T01:55:54;101286.72;;;26.39;100.00
7670;BME280;3877;42.562;27.636;2022-09-02T01:58:23;101266.72;;;26.18;100.00
7670;BME280;3877;42.562;27.636;2022-09-02T02:00:51;101294.50;;;26.42;100.00
7670;BME280;3877;42.562;27.636;2022-09-02T02:03:18;101284.25;;;26.41;100.00
7670;BME280;3877;42.562;27.636;2022-09-02T02:05:46;101293.69;;;26.45;100.00
7670;BME280;3877;42.562;27.636;2022-09-02T02:08:13;101292.84;;;26.45;100.00
7670;BME280;3877;42.562;27.636;2022-09-02T02:10:42;101290.41;;;26.43;100.00
7670;BME280;3877;42.562;27.636;2022-09-02T02:13:09;101283.84;;;26.39;100.00
7670;BME280;3877;42.562;27.636;2022-09-02T02:15:40;101278.09;;;26.39;100.00
7670;BME280;3877;42.562;27.636;2022-09-02T02:18:08;101285.84;;;26.49;100.00
7670;BME280;3877;42.562;27.636;2022-09-02T02:20:36;101273.59;;;26.38;100.00
7670;BME280;3877;42.562;27.636;2022-09-02T02:23:04;101286.31;;;26.37;100.00
7670;BME280;3877;42.562;27.636;2022-09-02T02:25:32;101285.50;;;26.40;100.00
7670;BME280;3877;42.562;27.636;2022-09-02T02:27:59;101285.47;;;26.44;100.00
7670;BME280;3877;42.562;27.636;2022-09-02T02:30:26;101277.31;;;26.35;100.00
7670;BME280;3877;42.562;27.636;2022-09-02T02:32:55;101277.28;;;26.39;100.00
7670;BME280;3877;42.562;27.636;2022-09-02T02:35:23;101282.63;;;26.40;100.00
7670;BME280;3877;42.562;27.636;2022-09-02T02:37:51;101278.16;;;26.32;100.00
7670;BME280;3877;42.562;27.636;2022-09-02T02:40:21;101268.31;;;26.30;100.00
7670;BME280;3877;42.562;27.636;2022-09-02T02:42:49;101275.28;;;26.32;100.00
7670;BME280;3877;42.562;27.636;2022-09-02T02:45:18;101276.47;;;26.38;100.00
7670;BME280;3877;42.562;27.636;2022-09-02T02:47:46;101285.88;;;26.42;100.00
7670;BME280;3877;42.562;27.636;2022-09-02T02:50:17;101279.72;;;26.44;100.00
7670;BME280;3877;42.562;27.636;2022-09-02T02:52:45;101282.22;;;26.38;100.00
7670;BME280;3877;42.562;27.636;2022-09-02T02:55:14;101287.13;;;26.45;100.00
7670;BME280;3877;42.562;27.636;2022-09-02T02:57:44;101284.25;;;26.45;100.00
7670;BME280;3877;42.562;27.636;2022-09-02T03:00:14;101282.22;;;26.42;100.00
7670;BME280;3877;42.562;27.636;2022-09-02T03:02:42;101285.88;;;26.42;100.00
7670;BME280;3877;42.562;27.636;2022-09-02T03:05:11;101274.00;;;26.40;100.00
7670;BME280;3877;42.562;27.636;2022-09-02T03:07:41;101281.34;;;26.48;100.00
7670;BME280;3877;42.562;27.636;2022-09-02T03:10:10;101277.66;;;26.51;100.00
7670;BME280;3877;42.562;27.636;2022-09-02T03:12:38;101271.53;;;26.39;100.00
7670;BME280;3877;42.562;27.636;2022-09-02T03:15:07;101278.91;;;26.43;100.00
7670;BME280;3877;42.562;27.636;2022-09-02T03:17:36;101274.81;;;26.44;100.00
7670;BME280;3877;42.562;27.636;2022-09-02T03:20:05;101270.72;;;26.42;100.00
7670;BME280;3877;42.562;27.636;2022-09-02T03:22:33;101263.34;;;26.34;100.00
7670;BME280;3877;42.562;27.636;2022-09-02T03:25:06;101256.78;;;26.33;100.00
7670;BME280;3877;42.562;27.636;2022-09-02T03:27:36;101272.34;;;26.43;100.00
7670;BME280;3877;42.562;27.636;2022-09-02T03:30:05;101274.00;;;26.40;100.00
7670;BME280;3877;42.562;27.636;2022-09-02T03:32:33;101269.50;;;26.39;100.00
7670;BME280;3877;42.562;27.636;2022-09-02T03:35:01;101274.81;;;26.37;100.00
7670;BME280;3877;42.562;27.636;2022-09-02T03:37:28;101266.22;;;26.41;100.00
7670;BME280;3877;42.562;27.636;2022-09-02T03:39:56;101269.94;;;26.34;100.00
7670;BME280;3877;42.562;27.636;2022-09-02T03:42:25;101267.06;;;26.31;100.00
7670;BME280;3877;42.562;27.636;2022-09-02T03:44:52;101226.97;;;26.06;100.00
7670;BME280;3877;42.562;27.636;2022-09-02T03:47:19;101283.84;;;26.39;100.00
7670;BME280;3877;42.562;27.636;2022-09-02T03:49:48;101269.06;;;26.37;100.00
7670;BME280;3877;42.562;27.636;2022-09-02T03:52:16;101291.59;;;26.49;100.00
7670;BME280;3877;42.562;27.636;2022-09-02T03:54:43;101287.47;;;26.54;100.00
7670;BME280;3877;42.562;27.636;2022-09-02T03:57:10;101289.94;;;26.55;100.00
7670;BME280;3877;42.562;27.636;2022-09-02T03:59:40;101293.16;;;26.61;100.00
7670;BME280;3877;42.562;27.636;2022-09-02T04:02:07;101292.81;;;26.55;100.00
7670;BME280;3877;42.562;27.636;2022-09-02T04:04:35;101289.94;;;26.55;100.00
7670;BME280;3877;42.562;27.636;2022-09-02T04:07:03;101293.56;;;26.63;100.00
7670;BME280;3877;42.562;27.636;2022-09-02T04:09:30;101288.22;;;26.65;100.00
7670;BME280;3877;42.562;27.636;2022-09-02T04:11:57;101296.00;;;26.68;100.00
7670;BME280;3877;42.562;27.636;2022-09-02T04:14:25;101288.13;;;26.76;100.00
7670;BME280;3877;42.562;27.636;2022-09-02T04:16:53;101298.78;;;26.82;100.00
7670;BME280;3877;42.562;27.636;2022-09-02T04:19:21;101299.97;;;26.85;100.00
7670;BME280;3877;42.562;27.636;2022-09-02T04:21:48;101294.19;;;26.99;100.00
7670;BME280;3877;42.562;27.636;2022-09-02T04:24:15;101287.47;;;27.16;100.00
7670;BME280;3877;42.562;27.636;2022-09-02T04:26:42;101290.72;;;27.18;100.00
7670;BME280;3877;42.562;27.636;2022-09-02T04:29:10;101272.00;;;26.96;100.00
7670;BME280;3877;42.562;27.636;2022-09-02T04:31:37;101289.28;;;26.96;100.00
7670;BME280;3877;42.562;27.636;2022-09-02T04:34:06;101290.91;;;26.97;100.00
7670;BME280;3877;42.562;27.636;2022-09-02T04:36:34;101284.38;;;26.93;100.00
7670;BME280;3877;42.562;27.636;2022-09-02T04:39:01;101299.13;;;26.95;100.00
7670;BME280;3877;42.562;27.636;2022-09-02T04:41:29;101300.78;;;26.96;100.00
7670;BME280;3877;42.562;27.636;2022-09-02T04:43:58;101308.69;;;26.74;100.00
7670;BME280;3877;42.562;27.636;2022-09-02T04:46:25;101306.75;;;26.61;100.00
7670;BME280;3877;42.562;27.636;2022-09-02T04:48:53;101307.53;;;26.65;100.00
7670;BME280;3877;42.562;27.636;2022-09-02T04:51:24;101300.97;;;26.64;100.00
7670;BME280;3877;42.562;27.636;2022-09-02T04:53:53;101290.19;;;26.79;100.00
7670;BME280;3877;42.562;27.636;2022-09-02T04:56:22;101302.75;;;27.06;100.00
7670;BME280;3877;42.562;27.636;2022-09-02T04:58:50;101304.72;;;27.16;100.00
7670;BME280;3877;42.562;27.636;2022-09-02T05:01:19;101302.31;;;27.11;100.00
7670;BME280;3877;42.562;27.636;2022-09-02T05:03:48;101305.09;;;27.18;100.00
7670;BME280;3877;42.562;27.636;2022-09-02T05:06:19;101288.81;;;27.53;100.00
7670;BME280;3877;42.562;27.636;2022-09-02T05:08:48;101285.19;;;27.41;100.00
7670;BME280;3877;42.562;27.636;2022-09-02T05:11:17;101296.22;;;27.91;100.00
7670;BME280;3877;42.562;27.636;2022-09-02T05:13:47;101292.16;;;28.22;100.00
7670;BME280;3877;42.562;27.636;2022-09-02T05:16:16;101300.31;;;28.58;100.00
7670;BME280;3877;42.562;27.636;2022-09-02T05:18:44;101248.69;;;28.67;100.00
7670;BME280;3877;42.562;27.636;2022-09-02T05:21:11;101298.09;;;29.49;100.00
7670;BME280;3877;42.562;27.636;2022-09-02T05:23:39;101303.03;;;29.49;100.00
7670;BME280;3877;42.562;27.636;2022-09-02T05:26:09;101301.38;;;29.25;100.00
7670;BME280;3877;42.562;27.636;2022-09-02T05:28:38;101269.69;;;28.71;100.00
7670;BME280;3877;42.562;27.636;2022-09-02T05:31:08;101258.72;;;28.59;100.00
7670;BME280;3877;42.562;27.636;2022-09-02T05:33:38;101311.00;;;28.31;100.00
7670;BME280;3877;42.562;27.636;2022-09-02T05:36:07;101294.47;;;28.35;100.00
7670;BME280;3877;42.562;27.636;2022-09-02T05:38:34;101297.94;;;28.22;100.00
7670;BME280;3877;42.562;27.636;2022-09-02T05:41:03;101304.47;;;28.23;100.00
7670;BME280;3877;42.562;27.636;2022-09-02T05:43:35;101310.81;;;28.45;100.00
7670;BME280;3877;42.562;27.636;2022-09-02T05:46:04;101279.78;;;28.25;100.00
7670;BME280;3877;42.562;27.636;2022-09-02T05:48:33;101301.94;;;28.32;100.00
7670;BME280;3877;42.562;27.636;2022-09-02T05:51:18;101314.03;;;28.50;100.00
7670;BME280;3877;42.562;27.636;2022-09-02T05:53:45;101315.06;;;28.33;100.00
7670;BME280;3877;42.562;27.636;2022-09-02T05:56:13;101308.97;;;27.90;100.00
7670;BME280;3877;42.562;27.636;2022-09-02T05:58:41;101314.66;;;27.97;100.00
7670;BME280;3877;42.562;27.636;2022-09-02T06:01:09;101315.44;;;28.01;100.00
7670;BME280;3877;42.562;27.636;2022-09-02T06:03:37;101312.56;;;28.35;100.00
7670;BME280;3877;42.562;27.636;2022-09-02T06:06:05;101298.97;;;28.66;100.00
7670;BME280;3877;42.562;27.636;2022-09-02T06:08:33;101310.28;;;28.84;100.00
7670;BME280;3877;42.562;27.636;2022-09-02T06:11:01;101301.19;;;28.85;100.00
7670;BME280;3877;42.562;27.636;2022-09-02T06:13:29;101315.38;;;28.73;100.00
7670;BME280;3877;42.562;27.636;2022-09-02T06:15:58;101305.88;;;28.42;100.00
7670;BME280;3877;42.562;27.636;2022-09-02T06:18:27;101317.53;;;28.35;100.00
7670;BME280;3877;42.562;27.636;2022-09-02T06:20:55;101315.41;;;28.69;100.00
7670;BME280;3877;42.562;27.636;2022-09-02T06:23:22;101312.25;;;28.60;100.00
7670;BME280;3877;42.562;27.636;2022-09-02T06:25:50;101312.84;;;28.78;100.00
7670;BME280;3877;42.562;27.636;2022-09-02T06:28:17;101316.75;;;28.91;100.00
7670;BME280;3877;42.562;27.636;2022-09-02T06:30:45;101327.84;;;28.62;100.00
7670;BME280;3877;42.562;27.636;2022-09-02T06:33:14;101326.66;;;28.60;100.00
7670;BME280;3877;42.562;27.636;2022-09-02T06:35:43;101315.72;;;28.78;100.00
7670;BME280;3877;42.562;27.636;2022-09-02T06:38:12;101318.97;;;28.80;100.00
7670;BME280;3877;42.562;27.636;2022-09-02T06:40:46;101303.00;;;28.42;100.00
7670;BME280;3877;42.562;27.636;2022-09-02T06:43:13;101326.41;;;28.47;100.00
7670;BME280;3877;42.562;27.636;2022-09-02T06:45:40;101325.97;;;28.49;100.00
7670;BME280;3877;42.562;27.636;2022-09-02T06:48:08;101322.53;;;28.31;100.00
7670;BME280;3877;42.562;27.636;2022-09-02T06:50:39;101323.28;;;28.35;100.00
7670;BME280;3877;42.562;27.636;2022-09-02T06:53:07;101324.44;;;28.41;100.00
7670;BME280;3877;42.562;27.636;2022-09-02T06:55:36;101308.59;;;28.25;100.00
7670;BME280;3877;42.562;27.636;2022-09-02T06:58:04;101324.09;;;28.35;100.00
7670;BME280;3877;42.562;27.636;2022-09-02T07:00:32;101338.16;;;28.30;100.00
7670;BME280;3877;42.562;27.636;2022-09-02T07:03:00;101344.69;;;28.34;100.00
7670;BME280;3877;42.562;27.636;2022-09-02T07:05:47;101335.50;;;28.46;100.00
7670;BME280;3877;42.562;27.636;2022-09-02T07:08:14;101332.31;;;28.37;100.00
7670;BME280;3877;42.562;27.636;2022-09-02T07:10:41;101350.84;;;28.36;100.00
7670;BME280;3877;42.562;27.636;2022-09-02T07:13:08;101343.16;;;28.25;100.00
7670;BME280;3877;42.562;27.636;2022-09-02T07:15:36;101346.59;;;28.10;100.00
7670;BME280;3877;42.562;27.636;2022-09-02T07:18:06;101343.53;;;27.90;100.00
7670;BME280;3877;42.562;27.636;2022-09-02T07:20:34;101356.22;;;27.96;100.00
7670;BME280;3877;42.562;27.636;2022-09-02T07:23:02;101352.88;;;28.01;100.00
7670;BME280;3877;42.562;27.636;2022-09-02T07:25:30;101344.44;;;27.80;100.00
7670;BME280;3877;42.562;27.636;2022-09-02T07:27:57;101353.59;;;27.71;100.00
7670;BME280;3877;42.562;27.636;2022-09-02T07:30:25;101350.28;;;27.73;100.00
7670;BME280;3877;42.562;27.636;2022-09-02T07:32:52;101345.44;;;27.63;100.00
7670;BME280;3877;42.562;27.636;2022-09-02T07:35:20;101367.41;;;27.87;100.00
7670;BME280;3877;42.562;27.636;2022-09-02T07:37:47;101364.00;;;27.99;100.00
7670;BME280;3877;42.562;27.636;2022-09-02T07:40:17;101363.06;;;28.13;100.00
7670;BME280;3877;42.562;27.636;2022-09-02T07:42:44;101359.75;;;28.14;100.00
7670;BME280;3877;42.562;27.636;2022-09-02T07:45:12;101359.56;;;28.28;100.00
7670;BME280;3877;42.562;27.636;2022-09-02T07:47:39;101329.53;;;28.30;100.00
7670;BME280;3877;42.562;27.636;2022-09-02T07:50:07;101361.63;;;28.62;100.00
7670;BME280;3877;42.562;27.636;2022-09-02T07:52:35;101357.81;;;28.72;100.00
7670;BME280;3877;42.562;27.636;2022-09-02T07:55:03;101354.03;;;28.79;100.00
7670;BME280;3877;42.562;27.636;2022-09-02T07:57:32;101343.19;;;28.86;100.00
7670;BME280;3877;42.562;27.636;2022-09-02T07:59:59;101330.97;;;28.75;100.00
7670;BME280;3877;42.562;27.636;2022-09-02T08:02:27;101341.56;;;28.85;100.00
7670;BME280;3877;42.562;27.636;2022-09-02T08:04:55;101348.38;;;28.98;100.00
7670;BME280;3877;42.562;27.636;2022-09-02T08:07:22;101326.44;;;29.04;100.00
7670;BME280;3877;42.562;27.636;2022-09-02T08:09:50;101331.41;;;29.31;100.00
7670;BME280;3877;42.562;27.636;2022-09-02T08:12:17;101343.06;;;29.47;100.00
7670;BME280;3877;42.562;27.636;2022-09-02T08:14:46;101343.81;;;29.51;100.00
7670;BME280;3877;42.562;27.636;2022-09-02T08:17:13;101335.41;;;29.37;100.00
7670;BME280;3877;42.562;27.636;2022-09-02T08:19:40;101334.03;;;29.45;100.00
7670;BME280;3877;42.562;27.636;2022-09-02T08:22:09;101341.22;;;29.60;100.00
7670;BME280;3877;42.562;27.636;2022-09-02T08:24:36;101333.66;;;29.66;100.00
7670;BME280;3877;42.562;27.636;2022-09-02T08:27:04;101338.81;;;29.55;100.00
7670;BME280;3877;42.562;27.636;2022-09-02T08:29:31;101334.78;;;29.49;100.00
7670;BME280;3877;42.562;27.636;2022-09-02T08:32:00;101335.78;;;29.39;100.00
7670;BME280;3877;42.562;27.636;2022-09-02T08:34:28;101329.13;;;29.42;100.00
7670;BME280;3877;42.562;27.636;2022-09-02T08:36:56;101333.41;;;29.34;100.00
7670;BME280;3877;42.562;27.636;2022-09-02T08:39:23;101336.03;;;29.48;100.00
7670;BME280;3877;42.562;27.636;2022-09-02T08:41:58;101302.53;;;29.31;100.00
7670;BME280;3877;42.562;27.636;2022-09-02T08:44:28;101317.59;;;29.42;100.00
7670;BME280;3877;42.562;27.636;2022-09-02T08:47:03;101338.81;;;29.55;100.00
7670;BME280;3877;42.562;27.636;2022-09-02T08:49:35;101328.91;;;29.29;100.00
7670;BME280;3877;42.562;27.636;2022-09-02T08:52:05;101328.22;;;29.22;100.00
7670;BME280;3877;42.562;27.636;2022-09-02T08:54:36;101318.72;;;29.48;100.00
7670;BME280;3877;42.562;27.636;2022-09-02T08:57:08;101312.69;;;29.39;100.00
7670;BME280;3877;42.562;27.636;2022-09-02T08:59:37;101321.34;;;29.39;100.00
7670;BME280;3877;42.562;27.636;2022-09-02T09:02:14;101314.91;;;29.54;100.00
7670;BME280;3877;42.562;27.636;2022-09-02T09:05:02;101326.50;;;29.74;100.00
7670;BME280;3877;42.562;27.636;2022-09-02T09:07:37;101323.75;;;29.67;100.00
7670;BME280;3877;42.562;27.636;2022-09-02T09:10:13;101331.41;;;29.54;100.00
7670;BME280;3877;42.562;27.636;2022-09-02T09:13:00;101338.44;;;29.53;100.00
7670;BME280;3877;42.562;27.636;2022-09-02T09:15:35;101305.25;;;29.41;100.00
7670;BME280;3877;42.562;27.636;2022-09-02T09:18:10;101310.63;;;29.63;100.00
7670;BME280;3877;42.562;27.636;2022-09-02T09:20:41;101316.66;;;29.48;100.00
7670;BME280;3877;42.562;27.636;2022-09-02T09:23:20;101315.84;;;29.48;100.00
7670;BME280;3877;42.562;27.636;2022-09-02T09:25:54;101321.84;;;29.34;100.00
7670;BME280;3877;42.562;27.636;2022-09-02T09:28:23;101320.31;;;29.26;100.00
7670;BME280;3877;42.562;27.636;2022-09-02T09:30:50;101325.34;;;29.22;100.00
7670;BME280;3877;42.562;27.636;2022-09-02T09:33:20;101307.00;;;29.08;100.00
7670;BME280;3877;42.562;27.636;2022-09-02T09:35:50;101311.50;;;29.09;100.00
7670;BME280;3877;42.562;27.636;2022-09-02T09:38:28;101313.06;;;29.18;100.00
7670;BME280;3877;42.562;27.636;2022-09-02T09:41:14;101260.22;;;28.97;100.00
7670;BME280;3877;42.562;27.636;2022-09-02T09:43:42;101305.06;;;29.25;100.00
7670;BME280;3877;42.562;27.636;2022-09-02T09:46:24;101300.63;;;29.21;100.00
7670;BME280;3877;42.562;27.636;2022-09-02T09:48:54;101277.28;;;29.11;100.00
7670;BME280;3877;42.562;27.636;2022-09-02T09:51:21;101308.56;;;29.40;100.00
7670;BME280;3877;42.562;27.636;2022-09-02T09:53:48;101277.13;;;29.45;100.00
7670;BME280;3877;42.562;27.636;2022-09-02T09:56:29;101308.50;;;29.43;100.00
7670;BME280;3877;42.562;27.636;2022-09-02T09:58:57;101294.44;;;29.45;100.00
7670;BME280;3877;42.562;27.636;2022-09-02T10:01:27;101301.03;;;29.46;100.00
7670;BME280;3877;42.562;27.636;2022-09-02T10:03:59;101273.94;;;29.40;100.00
7670;BME280;3877;42.562;27.636;2022-09-02T10:06:39;101280.44;;;29.44;100.00
7670;BME280;3877;42.562;27.636;2022-09-02T10:09:29;101276.59;;;29.27;100.00
7670;BME280;3877;42.562;27.636;2022-09-02T10:11:59;101276.78;;;29.17;100.00
7670;BME280;3877;42.562;27.636;2022-09-02T10:14:32;101282.44;;;29.47;100.00
7670;BME280;3877;42.562;27.636;2022-09-02T10:17:09;101262.75;;;29.42;100.00
7670;BME280;3877;42.562;27.636;2022-09-02T10:19:49;101261.63;;;29.36;100.00
7670;BME280;3877;42.562;27.636;2022-09-02T10:22:48;101255.88;;;29.36;100.00
7670;BME280;3877;42.562;27.636;2022-09-02T10:25:25;101242.69;;;29.35;100.00
7670;BME280;3877;42.562;27.636;2022-09-02T10:28:00;101246.72;;;29.41;100.00
7670;BME280;3877;42.562;27.636;2022-09-02T10:30:31;101256.34;;;29.54;100.00
7670;BME280;3877;42.562;27.636;2022-09-02T10:33:14;101261.84;;;29.68;100.00
7670;BME280;3877;42.562;27.636;2022-09-02T10:35:48;101261.47;;;29.66;100.00
7670;BME280;3877;42.562;27.636;2022-09-02T10:38:33;101248.44;;;29.58;100.00
7670;BME280;3877;42.562;27.636;2022-09-02T10:41:11;101249.09;;;29.46;100.00
7670;BME280;3877;42.562;27.636;2022-09-02T10:44:08;101247.72;;;29.31;100.00
7670;BME280;3877;42.562;27.636;2022-09-02T10:46:43;101232.78;;;29.36;100.00
7670;BME280;3877;42.562;27.636;2022-09-02T10:49:23;101246.44;;;29.55;100.00
7670;BME280;3877;42.562;27.636;2022-09-02T10:52:00;101237.34;;;29.76;100.00
7670;BME280;3877;42.562;27.636;2022-09-02T10:54:40;101246.16;;;29.69;100.00
7670;BME280;3877;42.562;27.636;2022-09-02T10:57:13;101257.56;;;29.76;100.00
7670;BME280;3877;42.562;27.636;2022-09-02T10:59:47;101252.69;;;29.73;100.00
7670;BME280;3877;42.562;27.636;2022-09-02T11:02:20;101251.47;;;29.71;100.00
7670;BME280;3877;42.562;27.636;2022-09-02T11:04:53;101248.19;;;29.49;100.00
7670;BME280;3877;42.562;27.636;2022-09-02T11:07:28;101247.31;;;29.52;100.00
7670;BME280;3877;42.562;27.636;2022-09-02T11:10:02;101239.72;;;29.15;100.00
7670;BME280;3877;42.562;27.636;2022-09-02T11:12:35;101249.84;;;29.50;100.00
7670;BME280;3877;42.562;27.636;2022-09-02T11:15:10;101241.69;;;29.45;100.00
7670;BME280;3877;42.562;27.636;2022-09-02T11:17:46;101236.91;;;29.35;100.00
7670;BME280;3877;42.562;27.636;2022-09-02T11:20:25;101204.66;;;29.17;100.00
7670;BME280;3877;42.562;27.636;2022-09-02T11:23:02;101210.94;;;29.11;100.00
7670;BME280;3877;42.562;27.636;2022-09-02T11:25:42;101192.06;;;29.07;100.00
7670;BME280;3877;42.562;27.636;2022-09-02T11:28:24;101244.91;;;29.24;100.00
7670;BME280;3877;42.562;27.636;2022-09-02T11:30:59;101233.38;;;29.00;100.00
7670;BME280;3877;42.562;27.636;2022-09-02T11:33:43;101233.00;;;28.72;100.00
7670;BME280;3877;42.562;27.636;2022-09-02T11:36:13;101226.88;;;28.66;100.00
7670;BME280;3877;42.562;27.636;2022-09-02T11:38:44;101233.13;;;28.61;100.00
7670;BME280;3877;42.562;27.636;2022-09-02T11:41:27;101220.97;;;28.50;100.00
7670;BME280;3877;42.562;27.636;2022-09-02T11:44:04;101225.09;;;28.49;100.00
7670;BME280;3877;42.562;27.636;2022-09-02T11:46:46;101223.66;;;28.34;100.00
7670;BME280;3877;42.562;27.636;2022-09-02T11:49:48;101231.13;;;28.31;100.00
7670;BME280;3877;42.562;27.636;2022-09-02T11:52:30;101210.81;;;28.11;100.00
7670;BME280;3877;42.562;27.636;2022-09-02T11:55:08;101221.56;;;28.07;100.00
7670;BME280;3877;42.562;27.636;2022-09-02T11:57:37;101211.50;;;28.22;100.00
7670;BME280;3877;42.562;27.636;2022-09-02T12:00:28;101208.13;;;28.27;100.00
7670;BME280;3877;42.562;27.636;2022-09-02T12:03:10;101207.91;;;28.42;100.00
7670;BME280;3877;42.562;27.636;2022-09-02T12:05:47;101204.75;;;28.33;100.00
7670;BME280;3877;42.562;27.636;2022-09-02T12:08:58;101199.91;;;28.53;100.00
7670;BME280;3877;42.562;27.636;2022-09-02T12:11:50;101103.06;;;28.05;100.00
7670;BME280;3877;42.562;27.636;2022-09-02T12:17:38;101193.06;;;28.97;100.00
7670;BME280;3877;42.562;27.636;2022-09-02T12:20:08;101183.34;;;28.87;100.00
7670;BME280;3877;42.562;27.636;2022-09-02T12:22:37;101195.75;;;28.84;100.00
7670;BME280;3877;42.562;27.636;2022-09-02T12:25:40;101176.56;;;28.97;100.00
7670;BME280;3877;42.562;27.636;2022-09-02T12:28:21;101174.03;;;28.99;100.00
7670;BME280;3877;42.562;27.636;2022-09-02T12:31:14;101178.38;;;28.88;100.00
7670;BME280;3877;42.562;27.636;2022-09-02T12:33:44;101186.03;;;28.75;100.00
7670;BME280;3877;42.562;27.636;2022-09-02T12:36:45;101185.28;;;28.67;100.00
7670;BME280;3877;42.562;27.636;2022-09-02T12:39:52;101190.94;;;28.47;100.00
7670;BME280;3877;42.562;27.636;2022-09-02T12:42:25;101193.72;;;28.54;100.00
7670;BME280;3877;42.562;27.636;2022-09-02T12:45:04;101186.75;;;28.25;100.00
7670;BME280;3877;42.562;27.636;2022-09-02T12:47:55;101177.03;;;28.15;100.00
7670;BME280;3877;42.562;27.636;2022-09-02T12:50:26;101213.38;;;28.02;100.00
7670;BME280;3877;42.562;27.636;2022-09-02T12:53:10;101204.34;;;28.00;100.00
7670;BME280;3877;42.562;27.636;2022-09-02T12:55:52;101205.53;;;27.72;100.00
7670;BME280;3877;42.562;27.636;2022-09-02T12:58:21;101185.91;;;27.64;100.00
7670;BME280;3877;42.562;27.636;2022-09-02T13:00:59;101177.56;;;27.35;100.00
7670;BME280;3877;42.562;27.636;2022-09-02T13:03:56;101200.00;;;27.55;100.00
7670;BME280;3877;42.562;27.636;2022-09-02T13:06:38;101193.84;;;27.87;100.00
7670;BME280;3877;42.562;27.636;2022-09-02T13:12:32;101173.75;;;27.83;100.00
7670;BME280;3877;42.562;27.636;2022-09-02T13:21:20;101177.56;;;27.73;100.00
7670;BME280;3877;42.562;27.636;2022-09-02T13:24:08;101167.72;;;27.70;100.00
7670;BME280;3877;42.562;27.636;2022-09-02T13:26:56;101150.50;;;27.67;100.00